Time,TemperatureF,DewpointF,PressureIn,WindDirection,WindDirectionDegrees,WindSpeedMPH,WindSpeedGustMPH,Humidity,HourlyPrecipIn,Conditions,Clouds,dailyrainin,SoftwareType,DateUTC
2013-09-22 00:02:00,52.0,52.0,29.62,West,274,0.0,1.0,100,0.00,,,0.00,weatherlink.com 1.10,2013-09-22 07:02:00,
2013-09-22 00:17:00,51.4,51.0,29.61,WNW,283,0.0,0.0,100,0.00,,,0.00,weatherlink.com 1.10,2013-09-22 07:17:00,
2013-09-22 00:32:00,51.3,51.0,29.61,WNW,283,0.0,0.0,100,0.00,,,0.00,weatherlink.com 1.10,2013-09-22 07:32:00,
2013-09-22 00:47:00,51.1,51.0,29.61,WNW,283,0.0,0.0,100,0.00,,,0.00,weatherlink.com 1.10,2013-09-22 07:47:00,
2013-09-22 01:02:00,50.9,51.0,29.60,WNW,282,0.0,0.0,100,0.00,,,0.00,weatherlink.com 1.10,2013-09-22 08:02:00,
2013-09-22 01:17:00,50.9,51.0,29.60,WNW,283,0.0,1.0,100,0.00,,,0.00,weatherlink.com 1.10,2013-09-22 08:17:00,
2013-09-22 01:32:00,50.8,51.0,29.59,WNW,283,0.0,0.0,100,0.00,,,0.00,weatherlink.com 1.10,2013-09-22 08:32:00,
2013-09-22 01:48:00,51.0,51.0,29.59,WNW,282,0.0,0.0,100,0.00,,,0.00,weatherlink.com 1.10,2013-09-22 08:48:00,
2013-09-22 02:03:00,51.0,51.0,29.59,WNW,282,0.0,0.0,100,0.00,,,0.00,weatherlink.com 1.10,2013-09-22 09:03:00,
2013-09-22 02:18:00,51.2,51.0,29.58,WNW,282,0.0,0.0,100,0.00,,,0.00,weatherlink.com 1.10,2013-09-22 09:18:00,
2013-09-22 02:33:00,51.2,51.0,29.59,WNW,283,0.0,1.0,100,0.00,,,0.00,weatherlink.com 1.10,2013-09-22 09:33:00,
2013-09-22 02:48:00,51.2,51.0,29.58,WNW,283,0.0,0.0,100,0.00,,,0.00,weatherlink.com 1.10,2013-09-22 09:48:00,
2013-09-22 03:04:00,51.3,51.0,29.58,WNW,283,0.0,0.0,100,0.00,,,0.00,weatherlink.com 1.10,2013-09-22 10:04:00,
2013-09-22 03:18:00,51.2,51.0,29.58,WNW,283,0.0,1.0,100,0.00,,,0.00,weatherlink.com 1.10,2013-09-22 10:18:00,
2013-09-22 03:33:00,51.2,51.0,29.57,WNW,283,0.0,1.0,100,0.01,,,0.01,weatherlink.com 1.10,2013-09-22 10:33:00,
2013-09-22 03:48:00,51.2,51.0,29.57,WNW,283,0.0,0.0,100,0.01,,,0.01,weatherlink.com 1.10,2013-09-22 10:48:00,
2013-09-22 04:03:00,51.1,51.0,29.57,WNW,282,0.0,0.0,100,0.01,,,0.01,weatherlink.com 1.10,2013-09-22 11:03:00,
2013-09-22 04:18:00,51.0,51.0,29.57,WNW,283,0.0,0.0,100,0.01,,,0.01,weatherlink.com 1.10,2013-09-22 11:18:00,
2013-09-22 04:33:00,51.0,51.0,29.56,WNW,283,0.0,0.0,100,0.00,,,0.01,weatherlink.com 1.10,2013-09-22 11:33:00,
2013-09-22 04:48:00,51.0,51.0,29.56,WNW,283,0.0,0.0,100,0.00,,,0.01,weatherlink.com 1.10,2013-09-22 11:48:00,
2013-09-22 05:03:00,51.0,51.0,29.55,NNE,16,0.0,1.0,100,0.01,,,0.02,weatherlink.com 1.10,2013-09-22 12:03:00,
2013-09-22 05:18:00,50.8,51.0,29.55,NNE,16,0.0,0.0,100,0.01,,,0.02,weatherlink.com 1.10,2013-09-22 12:18:00,
2013-09-22 05:33:00,50.9,51.0,29.55,NNE,16,0.0,0.0,100,0.01,,,0.02,weatherlink.com 1.10,2013-09-22 12:33:00,
2013-09-22 05:48:00,50.9,51.0,29.54,NW,309,0.0,1.0,100,0.02,,,0.03,weatherlink.com 1.10,2013-09-22 12:48:00,
2013-09-22 06:03:00,51.1,51.0,29.54,SW,232,1.0,3.0,100,0.01,,,0.03,weatherlink.com 1.10,2013-09-22 13:03:00,
2013-09-22 06:18:00,51.0,51.0,29.53,West,272,0.0,4.0,100,0.02,,,0.04,weatherlink.com 1.10,2013-09-22 13:18:00,
2013-09-22 06:33:00,50.9,51.0,29.53,West,281,0.0,2.0,100,0.02,,,0.04,weatherlink.com 1.10,2013-09-22 13:33:00,
2013-09-22 06:48:00,50.7,51.0,29.52,West,259,0.0,2.0,100,0.01,,,0.04,weatherlink.com 1.10,2013-09-22 13:48:00,
2013-09-22 07:03:00,50.4,50.0,29.51,West,274,0.0,4.0,100,0.00,,,0.04,weatherlink.com 1.10,2013-09-22 14:03:00,
2013-09-22 07:18:00,50.3,50.0,29.51,WSW,256,1.0,3.0,100,0.00,,,0.04,weatherlink.com 1.10,2013-09-22 14:18:00,
2013-09-22 07:33:00,50.1,50.0,29.51,NW,323,0.0,3.0,100,0.00,,,0.04,weatherlink.com 1.10,2013-09-22 14:33:00,
2013-09-22 07:48:00,50.0,50.0,29.50,WSW,258,0.0,1.0,100,0.00,,,0.04,weatherlink.com 1.10,2013-09-22 14:48:00,
2013-09-22 08:03:00,50.1,50.0,29.50,WSW,248,1.0,2.0,99,0.00,,,0.04,weatherlink.com 1.10,2013-09-22 15:03:00,
2013-09-22 08:18:00,50.3,50.0,29.48,NW,320,6.0,7.0,99,0.00,,,0.04,weatherlink.com 1.10,2013-09-22 15:18:00,
2013-09-22 08:33:00,51.3,51.0,29.47,West,276,2.0,5.0,97,0.00,,,0.04,weatherlink.com 1.10,2013-09-22 15:33:00,
2013-09-22 08:48:00,52.3,51.0,29.46,NE,49,1.0,9.0,94,0.00,,,0.04,weatherlink.com 1.10,2013-09-22 15:48:00,
2013-09-22 09:03:00,54.1,50.0,29.45,NNW,332,1.0,10.0,87,0.00,,,0.04,weatherlink.com 1.10,2013-09-22 16:03:00,
2013-09-22 09:18:00,55.1,52.0,29.44,WNW,294,4.0,9.0,90,0.00,,,0.04,weatherlink.com 1.10,2013-09-22 16:18:00,
2013-09-22 09:34:00,54.2,52.0,29.43,North,353,0.0,7.0,91,0.02,,,0.06,weatherlink.com 1.10,2013-09-22 16:34:00,
2013-09-22 09:49:00,54.6,53.0,29.42,NE,47,2.0,12.0,94,0.03,,,0.07,weatherlink.com 1.10,2013-09-22 16:49:00,
2013-09-22 10:04:00,55.5,53.0,29.41,NE,55,2.0,8.0,90,0.04,,,0.08,weatherlink.com 1.10,2013-09-22 17:04:00,
2013-09-22 10:19:00,56.1,54.0,29.41,NE,41,0.0,11.0,93,0.04,,,0.08,weatherlink.com 1.10,2013-09-22 17:19:00,
2013-09-22 10:34:00,55.8,54.0,29.40,WNW,295,0.0,6.0,93,0.04,,,0.10,weatherlink.com 1.10,2013-09-22 17:34:00,
2013-09-22 10:49:00,55.2,54.0,29.40,NNW,348,0.0,4.0,94,0.03,,,0.11,weatherlink.com 1.10,2013-09-22 17:49:00,
2013-09-22 11:04:00,54.0,52.0,29.39,WNW,302,1.0,4.0,94,0.08,,,0.16,weatherlink.com 1.10,2013-09-22 18:04:00,
2013-09-22 11:19:00,53.4,52.0,29.39,NW,321,2.0,4.0,96,0.14,,,0.22,weatherlink.com 1.10,2013-09-22 18:19:00,
2013-09-22 11:34:00,53.0,52.0,29.39,NW,326,0.0,3.0,97,0.20,,,0.30,weatherlink.com 1.10,2013-09-22 18:34:00,
2013-09-22 11:49:00,53.0,52.0,29.39,NNE,12,2.0,5.0,97,0.29,,,0.41,weatherlink.com 1.10,2013-09-22 18:49:00,
2013-09-22 12:19:00,52.8,52.0,29.42,ESE,123,1.0,4.0,97,0.29,,,0.51,weatherlink.com 1.10,2013-09-22 19:19:00,
2013-09-22 12:34:00,52.6,52.0,29.43,West,264,0.0,4.0,97,0.28,,,0.58,weatherlink.com 1.10,2013-09-22 19:34:00,
2013-09-22 12:49:00,52.7,52.0,29.43,WSW,242,1.0,3.0,98,0.20,,,0.61,weatherlink.com 1.10,2013-09-22 19:49:00,
2013-09-22 13:19:00,55.8,55.0,29.44,NW,325,5.0,5.0,98,0.10,,,0.61,weatherlink.com 1.10,2013-09-22 20:19:00,
2013-09-22 13:34:00,56.8,56.0,29.43,NW,305,1.0,5.0,97,0.03,,,0.61,weatherlink.com 1.10,2013-09-22 20:34:00,
2013-09-22 13:49:00,56.6,56.0,29.43,SSW,211,1.0,2.0,97,0.00,,,0.61,weatherlink.com 1.10,2013-09-22 20:49:00,
2013-09-22 14:04:00,56.0,55.0,29.44,WSW,257,0.0,5.0,97,0.00,,,0.61,weatherlink.com 1.10,2013-09-22 21:04:00,
2013-09-22 14:19:00,56.9,56.0,29.45,West,271,1.0,4.0,96,0.00,,,0.61,weatherlink.com 1.10,2013-09-22 21:19:00,
2013-09-22 14:35:00,56.2,55.0,29.46,West,269,1.0,4.0,95,0.00,,,0.61,weatherlink.com 1.10,2013-09-22 21:35:00,
2013-09-22 14:50:00,55.7,54.0,29.47,WSW,249,2.0,4.0,95,0.00,,,0.61,weatherlink.com 1.10,2013-09-22 21:50:00,
2013-09-22 15:05:00,55.9,55.0,29.48,West,273,0.0,1.0,96,0.00,,,0.61,weatherlink.com 1.10,2013-09-22 22:05:00,
2013-09-22 15:20:00,56.5,56.0,29.48,North,6,0.0,1.0,97,0.01,,,0.62,weatherlink.com 1.10,2013-09-22 22:20:00,
2013-09-22 15:35:00,56.6,56.0,29.49,SW,214,0.0,2.0,96,0.01,,,0.62,weatherlink.com 1.10,2013-09-22 22:35:00,
2013-09-22 15:50:00,56.8,55.0,29.50,SSE,148,0.0,2.0,94,0.01,,,0.62,weatherlink.com 1.10,2013-09-22 22:50:00,
2013-09-22 16:04:00,56.8,56.0,29.50,SW,216,0.0,2.0,96,0.03,,,0.64,weatherlink.com 1.10,2013-09-22 23:04:00,
2013-09-22 16:19:00,57.1,56.0,29.50,SSW,201,0.0,1.0,96,0.02,,,0.64,weatherlink.com 1.10,2013-09-22 23:19:00,
2013-09-22 16:34:00,56.7,56.0,29.51,SSE,166,0.0,1.0,96,0.03,,,0.65,weatherlink.com 1.10,2013-09-22 23:34:00,
2013-09-22 16:49:00,56.4,56.0,29.53,SSE,165,0.0,1.0,97,0.05,,,0.67,weatherlink.com 1.10,2013-09-22 23:49:00,
2013-09-22 17:04:00,55.4,54.0,29.52,WSW,257,1.0,3.0,96,0.07,,,0.71,weatherlink.com 1.10,2013-09-23 00:04:00,
2013-09-22 17:19:00,54.6,54.0,29.53,WSW,240,1.0,3.0,97,0.09,,,0.73,weatherlink.com 1.10,2013-09-23 00:19:00,
2013-09-22 17:34:00,54.1,53.0,29.53,SW,226,0.0,1.0,97,0.09,,,0.74,weatherlink.com 1.10,2013-09-23 00:34:00,
2013-09-22 17:49:00,54.0,54.0,29.53,SSW,210,0.0,1.0,98,0.07,,,0.74,weatherlink.com 1.10,2013-09-23 00:49:00,
2013-09-22 18:04:00,53.3,53.0,29.54,West,265,0.0,5.0,98,0.04,,,0.75,weatherlink.com 1.10,2013-09-23 01:04:00,
2013-09-22 18:19:00,52.8,52.0,29.54,West,273,0.0,2.0,98,0.02,,,0.75,weatherlink.com 1.10,2013-09-23 01:19:00,
2013-09-22 18:34:00,52.5,52.0,29.54,West,267,0.0,2.0,99,0.01,,,0.75,weatherlink.com 1.10,2013-09-23 01:34:00,
2013-09-22 18:49:00,52.5,52.0,29.55,West,263,0.0,2.0,99,0.01,,,0.75,weatherlink.com 1.10,2013-09-23 01:49:00,
2013-09-22 19:04:00,52.4,52.0,29.55,WSW,255,1.0,2.0,99,0.01,,,0.76,weatherlink.com 1.10,2013-09-23 02:04:00,
2013-09-22 19:19:00,52.4,52.0,29.56,West,259,0.0,3.0,99,0.03,,,0.78,weatherlink.com 1.10,2013-09-23 02:19:00,
2013-09-22 19:34:00,52.2,52.0,29.56,SW,214,1.0,5.0,99,0.05,,,0.80,weatherlink.com 1.10,2013-09-23 02:34:00,
2013-09-22 19:49:00,52.0,52.0,29.56,West,259,2.0,3.0,99,0.06,,,0.81,weatherlink.com 1.10,2013-09-23 02:49:00,
2013-09-22 20:05:00,51.5,51.0,29.57,West,275,0.0,1.0,99,0.05,,,0.81,weatherlink.com 1.10,2013-09-23 03:05:00,
2013-09-22 20:20:00,51.1,51.0,29.57,NW,311,1.0,2.0,99,0.03,,,0.81,weatherlink.com 1.10,2013-09-23 03:20:00,
2013-09-22 20:35:00,51.2,51.0,29.58,WNW,298,0.0,2.0,100,0.01,,,0.81,weatherlink.com 1.10,2013-09-23 03:35:00,
2013-09-22 20:50:00,51.3,51.0,29.59,West,269,0.0,4.0,100,0.00,,,0.81,weatherlink.com 1.10,2013-09-23 03:50:00,
2013-09-22 21:05:00,51.3,51.0,29.60,SE,145,1.0,2.0,100,0.00,,,0.81,weatherlink.com 1.10,2013-09-23 04:05:00,
2013-09-22 21:20:00,50.9,51.0,29.61,South,179,0.0,2.0,99,0.00,,,0.81,weatherlink.com 1.10,2013-09-23 04:20:00,
2013-09-22 21:35:00,50.9,51.0,29.61,South,182,0.0,1.0,100,0.05,,,0.86,weatherlink.com 1.10,2013-09-23 04:35:00,
2013-09-22 21:50:00,51.1,51.0,29.61,West,267,0.0,1.0,100,0.08,,,0.89,weatherlink.com 1.10,2013-09-23 04:50:00,
2013-09-22 22:05:00,51.2,51.0,29.61,West,270,1.0,2.0,100,0.11,,,0.92,weatherlink.com 1.10,2013-09-23 05:05:00,
2013-09-22 22:20:00,51.0,51.0,29.61,SSW,200,0.0,6.0,100,0.12,,,0.93,weatherlink.com 1.10,2013-09-23 05:20:00,
2013-09-22 22:35:00,50.9,51.0,29.62,WNW,289,0.0,3.0,99,0.07,,,0.93,weatherlink.com 1.10,2013-09-23 05:35:00,
2013-09-22 22:50:00,50.7,51.0,29.62,WNW,283,0.0,2.0,99,0.04,,,0.93,weatherlink.com 1.10,2013-09-23 05:50:00,
2013-09-22 23:05:00,50.6,50.0,29.63,WSW,256,0.0,2.0,99,0.01,,,0.93,weatherlink.com 1.10,2013-09-23 06:05:00,
2013-09-22 23:20:00,50.6,51.0,29.63,West,272,0.0,1.0,100,0.00,,,0.93,weatherlink.com 1.10,2013-09-23 06:20:00,
2013-09-22 23:35:00,50.5,51.0,29.64,West,272,0.0,1.0,100,0.00,,,0.93,weatherlink.com 1.10,2013-09-23 06:35:00,
2013-09-22 23:50:00,50.3,50.0,29.64,WNW,293,0.0,3.0,99,0.00,,,0.93,weatherlink.com 1.10,2013-09-23 06:50:00,